Time,TemperatureF,DewpointF,PressureIn,WindDirection,WindDirectionDegrees,WindSpeedMPH,WindSpeedGustMPH,Humidity,HourlyPrecipIn,Conditions,Clouds,dailyrainin,SoftwareType,DateUTC
2013-06-18 00:00:00,69.3,52.8,0.00,SE,126,0.0,0.0,56,0.00,,,0.00,Weather View 32 v70,2013-06-18 04:00:00,
2013-06-18 00:15:00,68.9,52.5,0.00,SE,126,0.0,0.0,56,0.00,,,0.00,Weather View 32 v70,2013-06-18 04:15:00,
2013-06-18 00:30:00,68.5,53.6,0.00,SE,126,0.0,0.0,59,0.00,,,0.00,Weather View 32 v70,2013-06-18 04:30:00,
2013-06-18 00:34:00,68.5,53.6,0.00,SE,126,0.0,0.0,59,0.00,,,0.00,Weather View 32 v70,2013-06-18 04:34:00,
2013-06-18 00:45:00,68.0,54.0,0.00,SE,126,0.0,0.0,61,0.00,,,0.00,Weather View 32 v70,2013-06-18 04:45:00,
2013-06-18 01:00:00,67.8,55.2,0.00,SE,126,0.0,0.0,64,0.00,,,0.00,Weather View 32 v70,2013-06-18 05:00:00,
2013-06-18 01:15:00,67.5,54.4,0.00,SE,126,0.0,0.0,63,0.00,,,0.00,Weather View 32 v70,2013-06-18 05:15:00,
2013-06-18 01:30:00,67.3,55.5,0.00,SE,126,0.0,0.0,66,0.00,,,0.00,Weather View 32 v70,2013-06-18 05:30:00,
2013-06-18 01:45:00,66.9,55.6,0.00,SE,126,0.0,0.0,67,0.00,,,0.00,Weather View 32 v70,2013-06-18 05:45:00,
2013-06-18 02:00:00,66.7,55.8,0.00,SE,126,0.0,0.0,68,0.00,,,0.00,Weather View 32 v70,2013-06-18 06:00:00,
2013-06-18 02:15:00,66.7,55.8,0.00,SE,126,0.0,0.0,68,0.00,,,0.00,Weather View 32 v70,2013-06-18 06:15:00,
2013-06-18 02:30:00,66.4,55.9,0.00,SE,126,0.0,0.0,69,0.00,,,0.00,Weather View 32 v70,2013-06-18 06:30:00,
2013-06-18 02:35:00,66.4,55.9,0.00,SE,126,0.0,0.0,69,0.00,,,0.00,Weather View 32 v70,2013-06-18 06:35:00,
2013-06-18 02:45:00,66.2,56.1,0.00,SE,126,0.0,0.0,70,0.00,,,0.00,Weather View 32 v70,2013-06-18 06:45:00,
2013-06-18 03:00:00,65.8,56.1,0.00,SE,126,0.0,0.0,71,0.00,,,0.00,Weather View 32 v70,2013-06-18 07:00:00,
2013-06-18 03:15:00,65.3,56.4,0.00,SE,126,0.0,0.0,73,0.00,,,0.00,Weather View 32 v70,2013-06-18 07:15:00,
2013-06-18 03:30:00,65.3,56.4,0.00,SE,126,0.0,0.0,73,0.00,,,0.00,Weather View 32 v70,2013-06-18 07:30:00,
2013-06-18 03:35:00,65.3,56.4,0.00,SE,126,0.0,0.0,73,0.00,,,0.00,Weather View 32 v70,2013-06-18 07:35:00,
2013-06-18 03:45:00,65.3,56.4,0.00,SE,126,0.0,0.0,73,0.00,,,0.00,Weather View 32 v70,2013-06-18 07:45:00,
2013-06-18 04:00:00,64.8,55.9,0.00,SE,126,0.0,0.0,73,0.00,,,0.00,Weather View 32 v70,2013-06-18 08:00:00,
2013-06-18 04:15:00,64.6,56.1,0.00,SE,126,0.0,0.0,74,0.00,,,0.00,Weather View 32 v70,2013-06-18 08:15:00,
2013-06-18 04:30:00,64.4,56.3,0.00,SE,126,0.0,0.0,75,0.00,,,0.00,Weather View 32 v70,2013-06-18 08:30:00,
2013-06-18 04:36:00,64.4,56.3,0.00,SE,126,0.0,0.0,75,0.00,,,0.00,Weather View 32 v70,2013-06-18 08:36:00,
2013-06-18 04:45:00,64.2,57.2,0.00,SE,126,0.0,0.0,78,0.00,,,0.00,Weather View 32 v70,2013-06-18 08:45:00,
2013-06-18 05:00:00,64.0,56.7,0.00,SE,126,0.0,0.0,77,0.00,,,0.00,Weather View 32 v70,2013-06-18 09:00:00,
2013-06-18 05:15:00,63.9,56.5,0.00,SE,126,0.0,0.0,77,0.00,,,0.00,Weather View 32 v70,2013-06-18 09:15:00,
2013-06-18 05:30:00,63.7,57.4,0.00,SE,126,0.0,0.0,80,0.00,,,0.00,Weather View 32 v70,2013-06-18 09:30:00,
2013-06-18 05:37:00,63.7,57.4,0.00,SE,126,0.0,0.0,80,0.00,,,0.00,Weather View 32 v70,2013-06-18 09:37:00,
2013-06-18 05:45:00,63.9,57.6,0.00,SE,126,0.0,0.0,80,0.00,,,0.00,Weather View 32 v70,2013-06-18 09:45:00,
2013-06-18 06:00:00,63.9,57.6,0.00,SE,126,0.0,0.0,80,0.00,,,0.00,Weather View 32 v70,2013-06-18 10:00:00,
2013-06-18 06:15:00,64.0,57.7,0.00,SE,126,0.0,0.0,80,0.00,,,0.00,Weather View 32 v70,2013-06-18 10:15:00,
2013-06-18 06:30:00,64.2,57.9,0.00,SE,126,0.0,0.0,80,0.00,,,0.00,Weather View 32 v70,2013-06-18 10:30:00,
2013-06-18 06:37:00,64.2,57.9,0.00,SE,126,0.0,0.0,80,0.00,,,0.00,Weather View 32 v70,2013-06-18 10:37:00,
2013-06-18 06:45:00,64.8,58.4,0.00,SE,126,0.0,0.0,80,0.00,,,0.00,Weather View 32 v70,2013-06-18 10:45:00,
2013-06-18 07:00:00,65.5,59.1,0.00,SE,126,0.0,0.0,80,0.00,,,0.00,Weather View 32 v70,2013-06-18 11:00:00,
2013-06-18 07:15:00,65.8,59.1,0.00,SE,126,0.0,0.0,79,0.00,,,0.00,Weather View 32 v70,2013-06-18 11:15:00,
2013-06-18 07:30:00,66.4,58.9,0.00,SE,126,0.0,0.0,77,0.00,,,0.00,Weather View 32 v70,2013-06-18 11:30:00,
2013-06-18 07:38:00,66.4,58.9,0.00,SE,126,0.0,0.0,77,0.00,,,0.00,Weather View 32 v70,2013-06-18 11:38:00,
2013-06-18 07:45:00,66.9,58.7,0.00,SE,126,0.0,0.0,75,0.00,,,0.00,Weather View 32 v70,2013-06-18 11:45:00,
2013-06-18 08:00:00,67.6,58.6,0.00,North,9,2.0,3.0,73,0.00,,,0.00,Weather View 32 v70,2013-06-18 12:00:00,
2013-06-18 08:15:00,68.7,58.1,0.00,NNE,14,0.0,3.0,69,0.00,,,0.00,Weather View 32 v70,2013-06-18 12:15:00,
2013-06-18 08:30:00,70.0,57.6,0.00,NW,311,0.0,4.0,65,0.00,,,0.00,Weather View 32 v70,2013-06-18 12:30:00,
2013-06-18 08:38:00,70.0,57.6,0.00,NW,311,0.0,4.0,65,0.00,,,0.00,Weather View 32 v70,2013-06-18 12:38:00,
2013-06-18 08:45:00,71.1,57.8,0.00,North,353,0.0,4.0,63,0.00,,,0.00,Weather View 32 v70,2013-06-18 12:45:00,
2013-06-18 09:00:00,72.3,56.7,0.00,NW,320,0.0,4.0,58,0.00,,,0.00,Weather View 32 v70,2013-06-18 13:00:00,
2013-06-18 09:15:00,74.1,56.9,0.00,NW,320,0.0,4.0,55,0.00,,,0.00,Weather View 32 v70,2013-06-18 13:15:00,
2013-06-18 09:30:00,75.2,57.4,0.00,North,9,0.0,4.0,54,0.00,,,0.00,Weather View 32 v70,2013-06-18 13:30:00,
2013-06-18 09:39:00,75.2,57.4,0.00,North,9,0.0,4.0,54,0.00,,,0.00,Weather View 32 v70,2013-06-18 13:39:00,
2013-06-18 09:45:00,76.8,55.0,0.00,SSE,163,0.0,4.0,47,0.00,,,0.00,Weather View 32 v70,2013-06-18 13:45:00,
2013-06-18 10:00:00,78.4,56.5,0.00,NNE,15,3.0,4.0,47,0.00,,,0.00,Weather View 32 v70,2013-06-18 14:00:00,
2013-06-18 10:15:00,78.3,53.9,0.00,SSE,155,3.0,4.0,43,0.00,,,0.00,Weather View 32 v70,2013-06-18 14:15:00,
2013-06-18 10:30:00,80.1,56.7,0.00,North,357,0.0,4.0,45,0.00,,,0.00,Weather View 32 v70,2013-06-18 14:30:00,
2013-06-18 10:39:00,80.1,56.7,0.00,North,357,0.0,4.0,45,0.00,,,0.00,Weather View 32 v70,2013-06-18 14:39:00,
2013-06-18 10:45:00,81.3,56.0,0.00,NNE,15,0.0,4.0,42,0.00,,,0.00,Weather View 32 v70,2013-06-18 14:45:00,
2013-06-18 11:00:00,80.8,54.8,0.00,SE,128,0.0,5.0,41,0.00,,,0.00,Weather View 32 v70,2013-06-18 15:00:00,
2013-06-18 11:15:00,82.0,56.6,0.00,North,357,3.0,5.0,42,0.00,,,0.00,Weather View 32 v70,2013-06-18 15:15:00,
2013-06-18 11:30:00,82.0,55.2,0.00,SSE,158,0.0,5.0,40,0.00,,,0.00,Weather View 32 v70,2013-06-18 15:30:00,
2013-06-18 11:45:00,82.2,51.8,0.00,South,177,0.0,5.0,35,0.00,,,0.00,Weather View 32 v70,2013-06-18 15:45:00,
2013-06-18 12:00:00,82.9,53.2,0.00,ESE,105,2.0,5.0,36,0.00,,,0.00,Weather View 32 v70,2013-06-18 16:00:00,
2013-06-18 12:15:00,82.9,54.6,0.00,South,181,0.0,5.0,38,0.00,,,0.00,Weather View 32 v70,2013-06-18 16:15:00,
2013-06-18 12:30:00,82.4,52.7,0.00,ESE,116,0.0,5.0,36,0.00,,,0.00,Weather View 32 v70,2013-06-18 16:30:00,
2013-06-18 12:45:00,82.0,54.6,0.00,SE,135,0.0,5.0,39,0.00,,,0.00,Weather View 32 v70,2013-06-18 16:45:00,
2013-06-18 13:00:00,81.7,52.8,0.00,ESE,108,0.0,5.0,37,0.00,,,0.00,Weather View 32 v70,2013-06-18 17:00:00,
2013-06-18 13:15:00,82.6,52.8,0.00,South,174,0.0,4.0,36,0.00,,,0.00,Weather View 32 v70,2013-06-18 17:15:00,
2013-06-18 13:30:00,83.1,55.5,0.00,ESE,111,3.0,3.0,39,0.00,,,0.00,Weather View 32 v70,2013-06-18 17:30:00,
2013-06-18 13:45:00,82.2,56.1,0.00,East,91,0.0,3.0,41,0.00,,,0.00,Weather View 32 v70,2013-06-18 17:45:00,
2013-06-18 14:00:00,81.3,53.9,0.00,SE,131,0.0,3.0,39,0.00,,,0.00,Weather View 32 v70,2013-06-18 18:00:00,
2013-06-18 14:15:00,80.8,56.1,0.00,SE,131,0.0,3.0,43,0.00,,,0.00,Weather View 32 v70,2013-06-18 18:15:00,
2013-06-18 14:30:00,80.1,57.3,0.00,SE,131,0.0,3.0,46,0.00,,,0.00,Weather View 32 v70,2013-06-18 18:30:00,
2013-06-18 14:45:00,79.2,58.3,0.00,SE,131,0.0,0.0,49,0.00,,,0.00,Weather View 32 v70,2013-06-18 18:45:00,
2013-06-18 15:00:00,77.7,56.4,0.00,SSW,192,0.0,5.0,48,0.00,,,0.00,Weather View 32 v70,2013-06-18 19:00:00,
2013-06-18 15:15:00,76.5,58.0,0.00,SE,135,3.0,5.0,53,0.00,,,0.00,Weather View 32 v70,2013-06-18 19:15:00,
2013-06-18 15:30:00,74.8,61.8,0.00,SSW,207,0.0,5.0,64,0.00,,,0.00,Weather View 32 v70,2013-06-18 19:30:00,
2013-06-18 15:45:00,72.5,60.5,0.00,SE,139,0.0,7.0,66,0.00,,,0.00,Weather View 32 v70,2013-06-18 19:45:00,
2013-06-18 16:00:00,71.6,60.9,0.00,NE,36,4.0,7.0,69,0.31,,,0.31,Weather View 32 v70,2013-06-18 20:00:00,
2013-06-18 16:15:00,68.5,61.0,0.00,ESE,111,4.0,7.0,77,0.75,,,0.75,Weather View 32 v70,2013-06-18 20:15:00,
2013-06-18 16:30:00,67.5,64.1,0.00,East,101,4.0,7.0,89,0.87,,,0.87,Weather View 32 v70,2013-06-18 20:30:00,
2013-06-18 16:45:00,67.1,60.0,0.00,SW,217,3.0,10.0,78,0.98,,,0.98,Weather View 32 v70,2013-06-18 20:45:00,
2013-06-18 17:00:00,66.7,60.7,0.00,South,174,2.0,10.0,81,0.75,,,1.06,Weather View 32 v70,2013-06-18 21:00:00,
2013-06-18 17:15:00,67.1,59.3,0.00,NNE,20,0.0,10.0,76,0.35,,,1.10,Weather View 32 v70,2013-06-18 21:15:00,
2013-06-18 17:30:00,65.7,58.9,0.00,WSW,240,2.0,10.0,79,0.24,,,1.10,Weather View 32 v70,2013-06-18 21:30:00,
2013-06-18 17:45:00,65.3,61.6,0.00,WNW,290,0.0,4.0,88,0.12,,,1.10,Weather View 32 v70,2013-06-18 21:45:00,
2013-06-18 18:00:00,65.5,60.2,0.00,WNW,298,2.0,4.0,83,0.08,,,1.14,Weather View 32 v70,2013-06-18 22:00:00,
2013-06-18 18:15:00,64.6,59.3,0.00,WNW,299,0.0,4.0,83,0.04,,,1.14,Weather View 32 v70,2013-06-18 22:15:00,
2013-06-18 18:30:00,64.2,61.2,0.00,West,261,4.0,5.0,90,0.04,,,1.14,Weather View 32 v70,2013-06-18 22:30:00,
2013-06-18 19:00:00,64.0,61.7,0.00,West,280,0.0,5.0,92,0.04,,,1.18,Weather View 32 v70,2013-06-18 23:00:00,
2013-06-18 19:15:00,64.2,62.1,0.00,SE,131,0.0,5.0,93,0.04,,,1.18,Weather View 32 v70,2013-06-18 23:15:00,
2013-06-18 19:30:00,64.2,62.5,0.00,SE,131,0.0,5.0,94,0.04,,,1.18,Weather View 32 v70,2013-06-18 23:30:00,
2013-06-18 19:45:00,64.0,62.0,0.00,SE,130,0.0,3.0,93,0.04,,,1.18,Weather View 32 v70,2013-06-18 23:45:00,
2013-06-18 20:00:00,64.2,62.1,0.00,SE,130,0.0,3.0,93,0.00,,,1.18,Weather View 32 v70,2013-06-19 00:00:00,
2013-06-18 20:15:00,64.4,62.3,0.00,East,80,0.0,0.0,93,0.00,,,1.18,Weather View 32 v70,2013-06-19 00:15:00,
2013-06-18 20:30:00,64.8,62.7,0.00,NNE,12,0.0,0.0,93,0.00,,,1.18,Weather View 32 v70,2013-06-19 00:30:00,
2013-06-18 20:45:00,64.9,63.2,0.00,NNE,12,0.0,0.0,94,0.00,,,1.18,Weather View 32 v70,2013-06-19 00:45:00,
2013-06-18 21:00:00,65.1,63.3,0.00,North,353,0.0,0.0,94,0.00,,,1.18,Weather View 32 v70,2013-06-19 01:00:00,
2013-06-18 21:15:00,65.1,63.3,0.00,North,0,0.0,0.0,94,0.00,,,1.18,Weather View 32 v70,2013-06-19 01:15:00,
2013-06-18 21:30:00,65.1,63.3,0.00,NNE,23,3.0,3.0,94,0.00,,,1.18,Weather View 32 v70,2013-06-19 01:30:00,
2013-06-18 21:45:00,64.6,62.8,0.00,North,10,3.0,4.0,94,0.00,,,1.18,Weather View 32 v70,2013-06-19 01:45:00,
2013-06-18 22:00:00,64.2,62.1,0.00,NE,51,0.0,5.0,93,0.00,,,1.18,Weather View 32 v70,2013-06-19 02:00:00,
2013-06-18 22:15:00,63.7,61.0,0.00,North,353,3.0,5.0,91,0.00,,,1.18,Weather View 32 v70,2013-06-19 02:15:00,
2013-06-18 22:30:00,63.5,60.8,0.00,North,5,0.0,5.0,91,0.00,,,1.18,Weather View 32 v70,2013-06-19 02:30:00,
2013-06-18 22:45:00,63.3,60.9,0.00,NNE,29,0.0,5.0,92,0.00,,,1.18,Weather View 32 v70,2013-06-19 02:45:00,
2013-06-18 23:00:00,63.1,60.5,0.00,North,0,0.0,4.0,91,0.00,,,1.18,Weather View 32 v70,2013-06-19 03:00:00,
2013-06-18 23:15:00,63.0,60.3,0.00,NNE,29,0.0,4.0,91,0.00,,,1.18,Weather View 32 v70,2013-06-19 03:15:00,
2013-06-18 23:30:00,62.8,60.1,0.00,North,353,0.0,4.0,91,0.00,,,1.18,Weather View 32 v70,2013-06-19 03:30:00,
2013-06-18 23:45:00,62.8,60.1,0.00,NNW,344,0.0,4.0,91,0.00,,,1.18,Weather View 32 v70,2013-06-19 03:45:00,